PortugalFixed distance
Ultra Trail do Marão UTM 60k
23 Mar2024
Distance
60km
Finishers
118104 men14 women
Winning time
7:25:50h
Median pace
5.23km/h
Pace distribution
118 finishers · 3.65–8.07 km/h · mean 5.38
Every finisher ran the same 60 km course, so these paces are directly comparable.
Histogram of finisher pace. 118 finishers ranged from 3.65 to 8.07 kilometres per hour, with a mean of 5.38 and a median of 5.23. The busiest band is 4.5 to 5.0 kilometres per hour, with 26 finishers.
Results
Ranks 1–50 of 118
| Rank | Runner | Time | Pace | Cat. | Placing |
|---|---|---|---|---|---|
| 1 | 7:25:50h | 8.07 | M35 | 1st M · 1st M35 | |
| 2 | 7:43:09h | 7.77 | M45 | 2nd M · 1st M45 | |
| 3 | 7:47:49h | 7.70 | M35 | 3rd M · 2nd M35 | |
| 4 | 8:00:49h | 7.49 | M40 | 4th M · 1st M40 | |
| 5 | 8:03:20h | 7.45 | M23 | 5th M · 1st M23 | |
| 6 | 8:10:07h | 7.34 | M45 | 6th M · 2nd M45 | |
| 7 | 8:29:12h | 7.07 | M35 | 7th M · 3rd M35 | |
| 8 | 8:35:07h | 6.99 | W40 | 1st F · 1st W40 | |
| 9 | 8:40:17h | 6.92 | M40 | 8th M · 2nd M40 | |
| 10 | 8:40:40h | 6.91 | M50 | 9th M · 1st M50 | |
| 11 | 8:46:50h | 6.83 | M35 | 10th M · 4th M35 | |
| 12 | 8:53:18h | 6.75 | M23 | 11th M · 2nd M23 | |
| 13 | 8:53:38h | 6.75 | M55 | 12th M · 1st M55 | |
| 14 | 8:54:17h | 6.74 | M45 | 13th M · 3rd M45 | |
| 14 | 8:54:17h | 6.74 | M40 | 13th M · 3rd M40 | |
| 16 | 8:56:31h | 6.71 | M40 | 15th M · 4th M40 | |
| 17 | 9:02:21h | 6.64 | M45 | 16th M · 4th M45 | |
| 18 | 9:02:41h | 6.63 | W40 | 2nd F · 2nd W40 | |
| 19 | 9:06:03h | 6.59 | M40 | 17th M · 5th M40 | |
| 20 | 9:17:00h | 6.46 | M35 | 18th M · 5th M35 | |
| 21 | 9:19:26h | 6.43 | M23 | 19th M · 3rd M23 | |
| 22 | 9:20:54h | 6.42 | M35 | 20th M · 6th M35 | |
| 23 | 9:21:01h | 6.42 | W40 | 3rd F · 3rd W40 | |
| 24 | 9:26:36h | 6.35 | M50 | 21st M · 2nd M50 | |
| 25 | 9:30:32h | 6.31 | M23 | 22nd M · 4th M23 | |
| 26 | 9:31:07h | 6.30 | M23 | 23rd M · 5th M23 | |
| 27 | 9:35:13h | 6.26 | M45 | 24th M · 5th M45 | |
| 28 | 9:42:07h | 6.18 | M40 | 25th M · 6th M40 | |
| 29 | 9:45:20h | 6.15 | M40 | 26th M · 7th M40 | |
| 30 | 9:49:49h | 6.10 | M40 | 27th M · 8th M40 | |
| 31 | 10:03:10h | 5.97 | M35 | 28th M · 7th M35 | |
| 32 | 10:04:21h | 5.96 | W35 | 4th F · 1st W35 | |
| 33 | 10:12:36h | 5.88 | M40 | 29th M · 9th M40 | |
| 34 | 10:14:12h | 5.86 | M50 | 30th M · 3rd M50 | |
| 35 | 10:24:25h | 5.76 | M40 | 31st M · 10th M40 | |
| 36 | 10:28:37h | 5.73 | M40 | 32nd M · 11th M40 | |
| 37 | 10:32:04h | 5.70 | M40 | 33rd M · 12th M40 | |
| 38 | 10:32:11h | 5.70 | M40 | 34th M · 13th M40 | |
| 39 | 10:33:01h | 5.69 | M45 | 35th M · 6th M45 | |
| 40 | 10:35:04h | 5.67 | M23 | 36th M · 6th M23 | |
| 41 | 10:45:04h | 5.58 | M50 | 37th M · 4th M50 | |
| 42 | 10:45:20h | 5.58 | M40 | 38th M · 14th M40 | |
| 43 | 10:46:16h | 5.57 | M45 | 39th M · 7th M45 | |
| 44 | 10:47:05h | 5.56 | M45 | 40th M · 8th M45 | |
| 45 | 10:47:07h | 5.56 | M40 | 41st M · 15th M40 | |
| 46 | 10:48:30h | 5.55 | M45 | 42nd M · 9th M45 | |
| 47 | 10:53:55h | 5.50 | M45 | 43rd M · 10th M45 | |
| 48 | 10:54:49h | 5.50 | M50 | 44th M · 5th M50 | |
| 49 | 10:55:45h | 5.49 | M23 | 45th M · 7th M23 | |
| 50 | 11:00:15h | 5.45 | M45 | 46th M · 11th M45 |
- 11st M · 1st M35Time7:25:50hPace8.07Cat.M35
- 22nd M · 1st M45Time7:43:09hPace7.77Cat.M45
- 33rd M · 2nd M35Time7:47:49hPace7.70Cat.M35
- 44th M · 1st M40Time8:00:49hPace7.49Cat.M40
- 55th M · 1st M23Time8:03:20hPace7.45Cat.M23
- 66th M · 2nd M45Time8:10:07hPace7.34Cat.M45
- 77th M · 3rd M35Time8:29:12hPace7.07Cat.M35
- 81st F · 1st W40Time8:35:07hPace6.99Cat.W40
- 98th M · 2nd M40Time8:40:17hPace6.92Cat.M40
- 109th M · 1st M50Time8:40:40hPace6.91Cat.M50
- 1110th M · 4th M35Time8:46:50hPace6.83Cat.M35
- 1211th M · 2nd M23Time8:53:18hPace6.75Cat.M23
- 1312th M · 1st M55Time8:53:38hPace6.75Cat.M55
- 1413th M · 3rd M45Time8:54:17hPace6.74Cat.M45
- 1413th M · 3rd M40Time8:54:17hPace6.74Cat.M40
- 1615th M · 4th M40Time8:56:31hPace6.71Cat.M40
- 1716th M · 4th M45Time9:02:21hPace6.64Cat.M45
- 182nd F · 2nd W40Time9:02:41hPace6.63Cat.W40
- 1917th M · 5th M40Time9:06:03hPace6.59Cat.M40
- 2018th M · 5th M35Time9:17:00hPace6.46Cat.M35
- 2119th M · 3rd M23Time9:19:26hPace6.43Cat.M23
- 2220th M · 6th M35Time9:20:54hPace6.42Cat.M35
- 233rd F · 3rd W40Time9:21:01hPace6.42Cat.W40
- 2421st M · 2nd M50Time9:26:36hPace6.35Cat.M50
- 2522nd M · 4th M23Time9:30:32hPace6.31Cat.M23
- 2623rd M · 5th M23Time9:31:07hPace6.30Cat.M23
- 2724th M · 5th M45Time9:35:13hPace6.26Cat.M45
- 2825th M · 6th M40Time9:42:07hPace6.18Cat.M40
- 2926th M · 7th M40Time9:45:20hPace6.15Cat.M40
- 3027th M · 8th M40Time9:49:49hPace6.10Cat.M40
- 3128th M · 7th M35Time10:03:10hPace5.97Cat.M35
- 324th F · 1st W35Time10:04:21hPace5.96Cat.W35
- 3329th M · 9th M40Time10:12:36hPace5.88Cat.M40
- 3430th M · 3rd M50Time10:14:12hPace5.86Cat.M50
- 3531st M · 10th M40Time10:24:25hPace5.76Cat.M40
- 3632nd M · 11th M40Time10:28:37hPace5.73Cat.M40
- 3733rd M · 12th M40Time10:32:04hPace5.70Cat.M40
- 3834th M · 13th M40Time10:32:11hPace5.70Cat.M40
- 3935th M · 6th M45Time10:33:01hPace5.69Cat.M45
- 4036th M · 6th M23Time10:35:04hPace5.67Cat.M23
- 4137th M · 4th M50Time10:45:04hPace5.58Cat.M50
- 4238th M · 14th M40Time10:45:20hPace5.58Cat.M40
- 4339th M · 7th M45Time10:46:16hPace5.57Cat.M45
- 4440th M · 8th M45Time10:47:05hPace5.56Cat.M45
- 4541st M · 15th M40Time10:47:07hPace5.56Cat.M40
- 4642nd M · 9th M45Time10:48:30hPace5.55Cat.M45
- 4743rd M · 10th M45Time10:53:55hPace5.50Cat.M45
- 4844th M · 5th M50Time10:54:49hPace5.50Cat.M50
- 4945th M · 7th M23Time10:55:45hPace5.49Cat.M23
- 5046th M · 11th M45Time11:00:15hPace5.45Cat.M45
Showing ranks 1–50 of 118